sensor_id;sensor_type;location;lat;lon;timestamp;P1;durP1;ratioP1;P2;durP2;ratioP2
13263;SDS011;6700;51.988;7.646;2022-08-19T00:02:04;9.93;;;7.63;;
13263;SDS011;6700;51.988;7.646;2022-08-19T00:04:32;8.63;;;7.83;;
13263;SDS011;6700;51.988;7.646;2022-08-19T00:07:03;8.47;;;7.50;;
13263;SDS011;6700;51.988;7.646;2022-08-19T00:09:31;7.47;;;6.87;;
13263;SDS011;6700;51.988;7.646;2022-08-19T00:11:58;7.70;;;6.97;;
13263;SDS011;6700;51.988;7.646;2022-08-19T00:14:26;8.90;;;8.00;;
13263;SDS011;6700;51.988;7.646;2022-08-19T00:16:57;8.77;;;7.60;;
13263;SDS011;6700;51.988;7.646;2022-08-19T00:19:25;8.73;;;7.93;;
13263;SDS011;6700;51.988;7.646;2022-08-19T00:21:52;9.87;;;8.13;;
13263;SDS011;6700;51.988;7.646;2022-08-19T00:24:20;8.40;;;7.57;;
13263;SDS011;6700;51.988;7.646;2022-08-19T00:26:47;8.77;;;7.87;;
13263;SDS011;6700;51.988;7.646;2022-08-19T00:29:15;8.20;;;7.40;;
13263;SDS011;6700;51.988;7.646;2022-08-19T00:31:45;9.17;;;8.37;;
13263;SDS011;6700;51.988;7.646;2022-08-19T00:34:15;8.87;;;7.80;;
13263;SDS011;6700;51.988;7.646;2022-08-19T00:36:43;10.10;;;7.63;;
13263;SDS011;6700;51.988;7.646;2022-08-19T00:39:10;8.73;;;7.60;;
13263;SDS011;6700;51.988;7.646;2022-08-19T00:41:37;7.90;;;7.20;;
13263;SDS011;6700;51.988;7.646;2022-08-19T00:44:06;11.93;;;7.93;;
13263;SDS011;6700;51.988;7.646;2022-08-19T00:46:36;8.33;;;7.53;;
13263;SDS011;6700;51.988;7.646;2022-08-19T00:49:20;11.73;;;8.57;;
13263;SDS011;6700;51.988;7.646;2022-08-19T00:51:53;11.40;;;9.80;;
13263;SDS011;6700;51.988;7.646;2022-08-19T00:54:24;10.43;;;9.37;;
13263;SDS011;6700;51.988;7.646;2022-08-19T00:56:57;11.60;;;8.90;;
13263;SDS011;6700;51.988;7.646;2022-08-19T00:59:25;9.83;;;8.53;;
13263;SDS011;6700;51.988;7.646;2022-08-19T01:02:15;9.90;;;8.03;;
13263;SDS011;6700;51.988;7.646;2022-08-19T01:04:42;9.73;;;8.73;;
13263;SDS011;6700;51.988;7.646;2022-08-19T01:07:09;9.17;;;8.37;;
13263;SDS011;6700;51.988;7.646;2022-08-19T01:09:42;12.37;;;10.63;;
13263;SDS011;6700;51.988;7.646;2022-08-19T01:12:09;9.70;;;7.83;;
13263;SDS011;6700;51.988;7.646;2022-08-19T01:14:37;9.03;;;8.13;;
13263;SDS011;6700;51.988;7.646;2022-08-19T01:17:10;9.37;;;8.47;;
13263;SDS011;6700;51.988;7.646;2022-08-19T01:19:39;9.63;;;8.73;;
13263;SDS011;6700;51.988;7.646;2022-08-19T01:24:54;10.23;;;9.33;;
13263;SDS011;6700;51.988;7.646;2022-08-19T01:27:21;11.13;;;8.10;;
13263;SDS011;6700;51.988;7.646;2022-08-19T01:29:49;12.57;;;8.43;;
13263;SDS011;6700;51.988;7.646;2022-08-19T01:32:16;12.67;;;9.57;;
13263;SDS011;6700;51.988;7.646;2022-08-19T01:34:59;9.17;;;8.27;;
13263;SDS011;6700;51.988;7.646;2022-08-19T01:37:28;10.17;;;8.83;;
13263;SDS011;6700;51.988;7.646;2022-08-19T01:39:56;11.73;;;9.10;;
13263;SDS011;6700;51.988;7.646;2022-08-19T01:42:23;11.50;;;8.97;;
13263;SDS011;6700;51.988;7.646;2022-08-19T01:44:55;11.60;;;8.20;;
13263;SDS011;6700;51.988;7.646;2022-08-19T01:47:22;11.23;;;8.47;;
13263;SDS011;6700;51.988;7.646;2022-08-19T01:49:49;9.57;;;8.67;;
13263;SDS011;6700;51.988;7.646;2022-08-19T01:52:16;11.43;;;9.07;;
13263;SDS011;6700;51.988;7.646;2022-08-19T01:54:43;11.17;;;9.70;;
13263;SDS011;6700;51.988;7.646;2022-08-19T01:57:10;10.80;;;8.87;;
13263;SDS011;6700;51.988;7.646;2022-08-19T01:59:41;11.67;;;8.67;;
13263;SDS011;6700;51.988;7.646;2022-08-19T02:02:08;8.47;;;7.50;;
13263;SDS011;6700;51.988;7.646;2022-08-19T02:04:35;9.87;;;8.87;;
13263;SDS011;6700;51.988;7.646;2022-08-19T02:07:04;11.77;;;8.63;;
13263;SDS011;6700;51.988;7.646;2022-08-19T02:09:32;11.93;;;9.23;;
13263;SDS011;6700;51.988;7.646;2022-08-19T02:12:00;14.57;;;8.83;;
13263;SDS011;6700;51.988;7.646;2022-08-19T02:14:27;10.60;;;9.37;;
13263;SDS011;6700;51.988;7.646;2022-08-19T02:16:54;10.40;;;8.70;;
13263;SDS011;6700;51.988;7.646;2022-08-19T02:19:20;14.27;;;10.53;;
13263;SDS011;6700;51.988;7.646;2022-08-19T02:21:47;12.03;;;9.80;;
13263;SDS011;6700;51.988;7.646;2022-08-19T02:24:14;10.50;;;9.30;;
13263;SDS011;6700;51.988;7.646;2022-08-19T02:26:41;11.93;;;10.83;;
13263;SDS011;6700;51.988;7.646;2022-08-19T02:29:08;12.60;;;11.37;;
13263;SDS011;6700;51.988;7.646;2022-08-19T02:31:35;13.00;;;11.70;;
13263;SDS011;6700;51.988;7.646;2022-08-19T02:34:02;13.30;;;11.90;;
13263;SDS011;6700;51.988;7.646;2022-08-19T02:36:29;12.87;;;11.57;;
13263;SDS011;6700;51.988;7.646;2022-08-19T02:38:56;13.20;;;11.83;;
13263;SDS011;6700;51.988;7.646;2022-08-19T02:41:27;14.97;;;13.17;;
13263;SDS011;6700;51.988;7.646;2022-08-19T02:43:57;14.93;;;13.10;;
13263;SDS011;6700;51.988;7.646;2022-08-19T02:46:47;15.77;;;11.70;;
13263;SDS011;6700;51.988;7.646;2022-08-19T02:49:17;13.60;;;12.10;;
13263;SDS011;6700;51.988;7.646;2022-08-19T02:51:45;13.40;;;12.00;;
13263;SDS011;6700;51.988;7.646;2022-08-19T02:54:12;13.57;;;11.37;;
13263;SDS011;6700;51.988;7.646;2022-08-19T02:56:40;13.90;;;11.20;;
13263;SDS011;6700;51.988;7.646;2022-08-19T02:59:09;13.20;;;11.87;;
13263;SDS011;6700;51.988;7.646;2022-08-19T03:01:37;13.53;;;12.17;;
13263;SDS011;6700;51.988;7.646;2022-08-19T03:04:08;13.40;;;11.93;;
13263;SDS011;6700;51.988;7.646;2022-08-19T03:06:43;14.17;;;12.67;;
13263;SDS011;6700;51.988;7.646;2022-08-19T03:09:11;19.37;;;14.43;;
13263;SDS011;6700;51.988;7.646;2022-08-19T03:11:40;17.30;;;14.43;;
13263;SDS011;6700;51.988;7.646;2022-08-19T03:14:08;17.67;;;15.87;;
13263;SDS011;6700;51.988;7.646;2022-08-19T03:16:45;16.77;;;14.93;;
13263;SDS011;6700;51.988;7.646;2022-08-19T03:19:15;20.03;;;15.27;;
13263;SDS011;6700;51.988;7.646;2022-08-19T03:21:43;16.60;;;14.83;;
13263;SDS011;6700;51.988;7.646;2022-08-19T03:24:11;15.87;;;13.70;;
13263;SDS011;6700;51.988;7.646;2022-08-19T03:26:40;15.73;;;13.77;;
13263;SDS011;6700;51.988;7.646;2022-08-19T03:29:08;14.87;;;13.40;;
13263;SDS011;6700;51.988;7.646;2022-08-19T03:31:38;16.97;;;15.27;;
13263;SDS011;6700;51.988;7.646;2022-08-19T03:34:28;15.53;;;13.93;;
13263;SDS011;6700;51.988;7.646;2022-08-19T03:36:57;16.97;;;14.20;;
13263;SDS011;6700;51.988;7.646;2022-08-19T03:39:26;15.23;;;13.00;;
13263;SDS011;6700;51.988;7.646;2022-08-19T03:41:54;16.20;;;13.67;;
13263;SDS011;6700;51.988;7.646;2022-08-19T03:44:49;16.83;;;14.10;;
13263;SDS011;6700;51.988;7.646;2022-08-19T03:47:17;15.77;;;13.57;;
13263;SDS011;6700;51.988;7.646;2022-08-19T03:49:44;15.83;;;14.17;;
13263;SDS011;6700;51.988;7.646;2022-08-19T03:52:11;16.50;;;14.57;;
13263;SDS011;6700;51.988;7.646;2022-08-19T03:54:38;15.93;;;14.37;;
13263;SDS011;6700;51.988;7.646;2022-08-19T03:57:05;17.30;;;15.53;;
13263;SDS011;6700;51.988;7.646;2022-08-19T03:59:33;17.67;;;14.80;;
13263;SDS011;6700;51.988;7.646;2022-08-19T04:02:02;18.17;;;15.77;;
13263;SDS011;6700;51.988;7.646;2022-08-19T04:04:34;18.00;;;15.57;;
13263;SDS011;6700;51.988;7.646;2022-08-19T04:07:24;17.47;;;15.67;;
13263;SDS011;6700;51.988;7.646;2022-08-19T04:09:51;16.50;;;14.80;;
13263;SDS011;6700;51.988;7.646;2022-08-19T04:12:20;19.00;;;16.33;;
13263;SDS011;6700;51.988;7.646;2022-08-19T04:14:52;20.37;;;16.20;;
13263;SDS011;6700;51.988;7.646;2022-08-19T04:17:21;18.80;;;16.03;;
13263;SDS011;6700;51.988;7.646;2022-08-19T04:19:48;19.80;;;16.03;;
13263;SDS011;6700;51.988;7.646;2022-08-19T04:22:15;17.30;;;15.60;;
13263;SDS011;6700;51.988;7.646;2022-08-19T04:24:42;19.67;;;15.77;;
13263;SDS011;6700;51.988;7.646;2022-08-19T04:27:08;16.80;;;15.03;;
13263;SDS011;6700;51.988;7.646;2022-08-19T04:29:35;19.90;;;15.40;;
13263;SDS011;6700;51.988;7.646;2022-08-19T04:32:05;17.47;;;14.60;;
13263;SDS011;6700;51.988;7.646;2022-08-19T04:34:34;19.57;;;15.53;;
13263;SDS011;6700;51.988;7.646;2022-08-19T04:37:23;19.43;;;15.93;;
13263;SDS011;6700;51.988;7.646;2022-08-19T04:39:54;17.03;;;15.27;;
13263;SDS011;6700;51.988;7.646;2022-08-19T04:42:39;18.47;;;15.67;;
13263;SDS011;6700;51.988;7.646;2022-08-19T04:45:07;19.60;;;14.70;;
13263;SDS011;6700;51.988;7.646;2022-08-19T04:47:39;17.10;;;15.20;;
13263;SDS011;6700;51.988;7.646;2022-08-19T04:50:23;19.60;;;16.20;;
13263;SDS011;6700;51.988;7.646;2022-08-19T04:52:51;17.53;;;15.33;;
13263;SDS011;6700;51.988;7.646;2022-08-19T04:55:19;18.40;;;16.50;;
13263;SDS011;6700;51.988;7.646;2022-08-19T04:57:46;17.07;;;15.23;;
13263;SDS011;6700;51.988;7.646;2022-08-19T05:00:13;19.23;;;15.47;;
13263;SDS011;6700;51.988;7.646;2022-08-19T05:02:40;17.50;;;14.93;;
13263;SDS011;6700;51.988;7.646;2022-08-19T05:05:07;18.33;;;15.57;;
13263;SDS011;6700;51.988;7.646;2022-08-19T05:07:35;20.17;;;16.60;;
13263;SDS011;6700;51.988;7.646;2022-08-19T05:10:03;22.17;;;18.27;;
13263;SDS011;6700;51.988;7.646;2022-08-19T05:12:32;17.77;;;15.33;;
13263;SDS011;6700;51.988;7.646;2022-08-19T05:14:59;19.13;;;16.03;;
13263;SDS011;6700;51.988;7.646;2022-08-19T05:17:27;17.60;;;14.33;;
13263;SDS011;6700;51.988;7.646;2022-08-19T05:20:01;19.40;;;15.30;;
13263;SDS011;6700;51.988;7.646;2022-08-19T05:22:48;17.03;;;15.07;;
13263;SDS011;6700;51.988;7.646;2022-08-19T05:25:16;17.37;;;15.10;;
13263;SDS011;6700;51.988;7.646;2022-08-19T05:27:46;18.63;;;15.40;;
13263;SDS011;6700;51.988;7.646;2022-08-19T05:30:14;18.47;;;15.23;;
13263;SDS011;6700;51.988;7.646;2022-08-19T05:32:41;17.63;;;15.77;;
13263;SDS011;6700;51.988;7.646;2022-08-19T05:35:10;19.17;;;16.43;;
13263;SDS011;6700;51.988;7.646;2022-08-19T05:37:38;18.90;;;16.37;;
13263;SDS011;6700;51.988;7.646;2022-08-19T05:40:07;19.47;;;15.47;;
13263;SDS011;6700;51.988;7.646;2022-08-19T05:42:36;17.87;;;15.97;;
13263;SDS011;6700;51.988;7.646;2022-08-19T05:45:03;18.67;;;16.67;;
13263;SDS011;6700;51.988;7.646;2022-08-19T05:47:30;18.53;;;16.07;;
13263;SDS011;6700;51.988;7.646;2022-08-19T05:49:58;19.03;;;15.37;;
13263;SDS011;6700;51.988;7.646;2022-08-19T05:52:25;18.70;;;15.70;;
13263;SDS011;6700;51.988;7.646;2022-08-19T05:54:55;18.50;;;16.50;;
13263;SDS011;6700;51.988;7.646;2022-08-19T05:57:23;23.63;;;20.47;;
13263;SDS011;6700;51.988;7.646;2022-08-19T05:59:50;22.53;;;18.27;;
13263;SDS011;6700;51.988;7.646;2022-08-19T06:02:24;22.63;;;16.80;;
13263;SDS011;6700;51.988;7.646;2022-08-19T06:04:52;18.10;;;16.13;;
13263;SDS011;6700;51.988;7.646;2022-08-19T06:07:19;18.30;;;16.07;;
13263;SDS011;6700;51.988;7.646;2022-08-19T06:09:46;17.63;;;15.47;;
13263;SDS011;6700;51.988;7.646;2022-08-19T06:12:25;17.07;;;15.07;;
13263;SDS011;6700;51.988;7.646;2022-08-19T06:14:58;16.80;;;14.93;;
13263;SDS011;6700;51.988;7.646;2022-08-19T06:17:31;15.97;;;13.90;;
13263;SDS011;6700;51.988;7.646;2022-08-19T06:20:01;15.57;;;13.83;;
13263;SDS011;6700;51.988;7.646;2022-08-19T06:22:42;13.90;;;12.47;;
13263;SDS011;6700;51.988;7.646;2022-08-19T06:25:14;14.97;;;12.33;;
13263;SDS011;6700;51.988;7.646;2022-08-19T06:27:43;14.53;;;12.70;;
13263;SDS011;6700;51.988;7.646;2022-08-19T06:30:31;16.17;;;13.30;;
13263;SDS011;6700;51.988;7.646;2022-08-19T06:32:59;14.87;;;13.03;;
13263;SDS011;6700;51.988;7.646;2022-08-19T06:35:25;18.20;;;13.10;;
13263;SDS011;6700;51.988;7.646;2022-08-19T06:37:53;14.67;;;13.17;;
13263;SDS011;6700;51.988;7.646;2022-08-19T06:40:20;16.63;;;13.90;;
13263;SDS011;6700;51.988;7.646;2022-08-19T06:42:47;13.73;;;12.30;;
13263;SDS011;6700;51.988;7.646;2022-08-19T06:45:20;14.77;;;12.87;;
13263;SDS011;6700;51.988;7.646;2022-08-19T06:48:00;15.60;;;13.00;;
13263;SDS011;6700;51.988;7.646;2022-08-19T06:50:28;15.90;;;13.27;;
13263;SDS011;6700;51.988;7.646;2022-08-19T06:52:55;16.87;;;12.50;;
13263;SDS011;6700;51.988;7.646;2022-08-19T06:55:23;17.87;;;12.87;;
13263;SDS011;6700;51.988;7.646;2022-08-19T06:57:50;17.23;;;11.57;;
13263;SDS011;6700;51.988;7.646;2022-08-19T07:00:19;17.90;;;12.52;;
13263;SDS011;6700;51.988;7.646;2022-08-19T07:02:47;15.35;;;12.07;;
13263;SDS011;6700;51.988;7.646;2022-08-19T07:05:23;16.83;;;12.32;;
13263;SDS011;6700;51.988;7.646;2022-08-19T07:07:50;16.38;;;11.80;;
13263;SDS011;6700;51.988;7.646;2022-08-19T07:10:17;13.05;;;11.60;;
13263;SDS011;6700;51.988;7.646;2022-08-19T07:12:45;16.20;;;12.75;;
13263;SDS011;6700;51.988;7.646;2022-08-19T07:15:13;18.85;;;13.07;;
13263;SDS011;6700;51.988;7.646;2022-08-19T07:17:41;15.95;;;12.70;;
13263;SDS011;6700;51.988;7.646;2022-08-19T07:20:10;17.42;;;13.38;;
13263;SDS011;6700;51.988;7.646;2022-08-19T07:22:37;15.73;;;12.80;;
13263;SDS011;6700;51.988;7.646;2022-08-19T07:25:05;14.55;;;12.00;;
13263;SDS011;6700;51.988;7.646;2022-08-19T07:27:34;17.08;;;12.82;;
13263;SDS011;6700;51.988;7.646;2022-08-19T07:30:04;17.35;;;12.38;;
13263;SDS011;6700;51.988;7.646;2022-08-19T07:32:37;13.68;;;11.68;;
13263;SDS011;6700;51.988;7.646;2022-08-19T07:35:05;17.70;;;11.75;;
13263;SDS011;6700;51.988;7.646;2022-08-19T07:37:35;15.45;;;11.32;;
13263;SDS011;6700;51.988;7.646;2022-08-19T07:40:04;16.20;;;12.55;;
13263;SDS011;6700;51.988;7.646;2022-08-19T07:42:33;14.65;;;11.30;;
13263;SDS011;6700;51.988;7.646;2022-08-19T07:45:00;16.98;;;11.27;;
13263;SDS011;6700;51.988;7.646;2022-08-19T07:47:27;16.40;;;10.48;;
13263;SDS011;6700;51.988;7.646;2022-08-19T07:50:14;11.88;;;10.10;;
13263;SDS011;6700;51.988;7.646;2022-08-19T07:52:42;11.50;;;9.70;;
13263;SDS011;6700;51.988;7.646;2022-08-19T07:55:14;11.50;;;9.77;;
13263;SDS011;6700;51.988;7.646;2022-08-19T07:58:04;12.35;;;9.95;;
13263;SDS011;6700;51.988;7.646;2022-08-19T08:00:31;13.48;;;9.80;;
13263;SDS011;6700;51.988;7.646;2022-08-19T08:02:58;14.85;;;10.30;;
13263;SDS011;6700;51.988;7.646;2022-08-19T08:05:25;14.00;;;11.05;;
13263;SDS011;6700;51.988;7.646;2022-08-19T08:08:15;13.13;;;11.60;;
13263;SDS011;6700;51.988;7.646;2022-08-19T08:11:00;10.82;;;9.43;;
13263;SDS011;6700;51.988;7.646;2022-08-19T08:13:32;10.73;;;8.77;;
13263;SDS011;6700;51.988;7.646;2022-08-19T08:16:01;15.73;;;9.82;;
13263;SDS011;6700;51.988;7.646;2022-08-19T08:18:28;11.73;;;10.25;;
13263;SDS011;6700;51.988;7.646;2022-08-19T08:20:55;14.75;;;9.77;;
13263;SDS011;6700;51.988;7.646;2022-08-19T08:23:23;12.90;;;11.60;;
13263;SDS011;6700;51.988;7.646;2022-08-19T08:25:53;13.73;;;9.68;;
13263;SDS011;6700;51.988;7.646;2022-08-19T08:28:22;12.38;;;9.88;;
13263;SDS011;6700;51.988;7.646;2022-08-19T08:30:51;11.32;;;8.73;;
13263;SDS011;6700;51.988;7.646;2022-08-19T08:33:22;10.23;;;7.65;;
13263;SDS011;6700;51.988;7.646;2022-08-19T08:36:06;9.50;;;8.48;;
13263;SDS011;6700;51.988;7.646;2022-08-19T08:38:34;12.80;;;8.93;;
13263;SDS011;6700;51.988;7.646;2022-08-19T08:43:54;10.65;;;9.55;;
13263;SDS011;6700;51.988;7.646;2022-08-19T08:49:20;11.50;;;7.65;;
13263;SDS011;6700;51.988;7.646;2022-08-19T08:52:22;10.13;;;6.57;;
13263;SDS011;6700;51.988;7.646;2022-08-19T08:54:47;9.98;;;7.43;;
13263;SDS011;6700;51.988;7.646;2022-08-19T08:57:28;9.40;;;6.93;;
13263;SDS011;6700;51.988;7.646;2022-08-19T09:00:26;9.45;;;8.57;;
13263;SDS011;6700;51.988;7.646;2022-08-19T09:02:57;8.38;;;7.05;;
13263;SDS011;6700;51.988;7.646;2022-08-19T09:05:42;8.55;;;6.90;;
13263;SDS011;6700;51.988;7.646;2022-08-19T09:11:04;10.25;;;6.20;;
13263;SDS011;6700;51.988;7.646;2022-08-19T09:13:44;6.82;;;5.22;;
13263;SDS011;6700;51.988;7.646;2022-08-19T09:16:19;5.35;;;4.95;;
13263;SDS011;6700;51.988;7.646;2022-08-19T09:18:54;6.60;;;4.95;;
13263;SDS011;6700;51.988;7.646;2022-08-19T09:21:25;5.43;;;4.25;;
13263;SDS011;6700;51.988;7.646;2022-08-19T09:23:59;4.38;;;3.97;;
13263;SDS011;6700;51.988;7.646;2022-08-19T09:26:31;5.32;;;4.82;;
13263;SDS011;6700;51.988;7.646;2022-08-19T09:29:18;5.25;;;3.90;;
13263;SDS011;6700;51.988;7.646;2022-08-19T09:31:47;5.43;;;4.32;;
13263;SDS011;6700;51.988;7.646;2022-08-19T09:34:15;6.47;;;4.28;;
13263;SDS011;6700;51.988;7.646;2022-08-19T09:36:47;4.53;;;4.13;;
13263;SDS011;6700;51.988;7.646;2022-08-19T09:39:20;8.40;;;3.95;;
13263;SDS011;6700;51.988;7.646;2022-08-19T09:41:47;7.55;;;4.85;;
13263;SDS011;6700;51.988;7.646;2022-08-19T09:44:16;4.70;;;4.30;;
13263;SDS011;6700;51.988;7.646;2022-08-19T09:46:44;3.95;;;3.42;;
13263;SDS011;6700;51.988;7.646;2022-08-19T09:49:13;4.35;;;4.05;;
13263;SDS011;6700;51.988;7.646;2022-08-19T09:51:43;4.43;;;4.03;;
13263;SDS011;6700;51.988;7.646;2022-08-19T09:54:16;5.35;;;4.82;;
13263;SDS011;6700;51.988;7.646;2022-08-19T09:56:49;3.97;;;3.60;;
13263;SDS011;6700;51.988;7.646;2022-08-19T09:59:16;5.25;;;4.75;;
13263;SDS011;6700;51.988;7.646;2022-08-19T10:01:43;3.88;;;3.58;;
13263;SDS011;6700;51.988;7.646;2022-08-19T10:04:11;6.78;;;4.40;;
13263;SDS011;6700;51.988;7.646;2022-08-19T10:06:45;5.18;;;3.55;;
13263;SDS011;6700;51.988;7.646;2022-08-19T10:09:18;9.27;;;4.43;;
13263;SDS011;6700;51.988;7.646;2022-08-19T10:11:59;5.93;;;4.30;;
13263;SDS011;6700;51.988;7.646;2022-08-19T10:14:27;4.38;;;4.00;;
13263;SDS011;6700;51.988;7.646;2022-08-19T10:16:54;4.95;;;3.80;;
13263;SDS011;6700;51.988;7.646;2022-08-19T10:19:24;5.57;;;4.38;;
13263;SDS011;6700;51.988;7.646;2022-08-19T10:21:52;4.10;;;3.80;;
13263;SDS011;6700;51.988;7.646;2022-08-19T10:24:23;5.03;;;4.63;;
13263;SDS011;6700;51.988;7.646;2022-08-19T10:26:52;4.40;;;4.00;;
13263;SDS011;6700;51.988;7.646;2022-08-19T10:29:25;5.18;;;4.70;;
13263;SDS011;6700;51.988;7.646;2022-08-19T10:31:58;4.07;;;3.78;;
13263;SDS011;6700;51.988;7.646;2022-08-19T10:34:28;5.38;;;3.90;;
13263;SDS011;6700;51.988;7.646;2022-08-19T10:36:56;5.13;;;4.10;;
13263;SDS011;6700;51.988;7.646;2022-08-19T10:39:27;5.15;;;4.25;;
13263;SDS011;6700;51.988;7.646;2022-08-19T10:42:08;7.95;;;3.90;;
13263;SDS011;6700;51.988;7.646;2022-08-19T10:44:39;4.60;;;4.20;;
13263;SDS011;6700;51.988;7.646;2022-08-19T10:47:06;10.00;;;4.97;;
13263;SDS011;6700;51.988;7.646;2022-08-19T10:49:50;6.25;;;4.80;;
13263;SDS011;6700;51.988;7.646;2022-08-19T10:52:37;4.50;;;4.10;;
13263;SDS011;6700;51.988;7.646;2022-08-19T10:55:15;6.90;;;3.85;;
13263;SDS011;6700;51.988;7.646;2022-08-19T10:58:03;4.10;;;3.80;;
13263;SDS011;6700;51.988;7.646;2022-08-19T11:00:30;3.95;;;3.60;;
13263;SDS011;6700;51.988;7.646;2022-08-19T11:02:58;3.95;;;3.65;;
13263;SDS011;6700;51.988;7.646;2022-08-19T11:05:25;3.63;;;3.38;;
13263;SDS011;6700;51.988;7.646;2022-08-19T11:07:51;5.28;;;3.42;;
13263;SDS011;6700;51.988;7.646;2022-08-19T11:10:19;4.70;;;3.10;;
13263;SDS011;6700;51.988;7.646;2022-08-19T11:12:47;3.88;;;3.58;;
13263;SDS011;6700;51.988;7.646;2022-08-19T11:15:15;4.93;;;3.92;;
13263;SDS011;6700;51.988;7.646;2022-08-19T11:17:42;3.60;;;3.10;;
13263;SDS011;6700;51.988;7.646;2022-08-19T11:20:13;3.70;;;3.40;;
13263;SDS011;6700;51.988;7.646;2022-08-19T11:22:41;3.08;;;2.83;;
13263;SDS011;6700;51.988;7.646;2022-08-19T11:25:09;4.20;;;3.80;;
13263;SDS011;6700;51.988;7.646;2022-08-19T11:27:38;5.38;;;3.80;;
13263;SDS011;6700;51.988;7.646;2022-08-19T11:30:09;4.25;;;3.95;;
13263;SDS011;6700;51.988;7.646;2022-08-19T11:32:39;4.05;;;3.65;;
13263;SDS011;6700;51.988;7.646;2022-08-19T11:35:13;5.35;;;4.38;;
13263;SDS011;6700;51.988;7.646;2022-08-19T11:37:40;4.45;;;4.05;;
13263;SDS011;6700;51.988;7.646;2022-08-19T11:40:08;4.35;;;3.95;;
13263;SDS011;6700;51.988;7.646;2022-08-19T11:42:36;5.10;;;3.78;;
13263;SDS011;6700;51.988;7.646;2022-08-19T11:45:26;4.32;;;3.92;;
13263;SDS011;6700;51.988;7.646;2022-08-19T11:47:54;6.57;;;4.60;;
13263;SDS011;6700;51.988;7.646;2022-08-19T11:50:22;3.65;;;3.35;;
13263;SDS011;6700;51.988;7.646;2022-08-19T11:52:50;4.82;;;3.65;;
13263;SDS011;6700;51.988;7.646;2022-08-19T11:55:20;4.28;;;3.88;;
13263;SDS011;6700;51.988;7.646;2022-08-19T11:57:47;3.95;;;3.55;;
13263;SDS011;6700;51.988;7.646;2022-08-19T12:00:14;5.30;;;3.92;;
13263;SDS011;6700;51.988;7.646;2022-08-19T12:02:41;5.85;;;3.72;;
13263;SDS011;6700;51.988;7.646;2022-08-19T12:05:08;3.85;;;3.55;;
13263;SDS011;6700;51.988;7.646;2022-08-19T12:07:38;4.93;;;4.53;;
13263;SDS011;6700;51.988;7.646;2022-08-19T12:10:07;4.97;;;4.47;;
13263;SDS011;6700;51.988;7.646;2022-08-19T12:12:35;4.47;;;4.13;;
13263;SDS011;6700;51.988;7.646;2022-08-19T12:15:06;4.72;;;4.32;;
13263;SDS011;6700;51.988;7.646;2022-08-19T12:17:34;7.22;;;5.03;;
13263;SDS011;6700;51.988;7.646;2022-08-19T12:20:00;9.80;;;5.40;;
13263;SDS011;6700;51.988;7.646;2022-08-19T12:22:27;5.57;;;5.10;;
13263;SDS011;6700;51.988;7.646;2022-08-19T12:24:55;6.28;;;5.72;;
13263;SDS011;6700;51.988;7.646;2022-08-19T12:27:23;6.78;;;5.72;;
13263;SDS011;6700;51.988;7.646;2022-08-19T12:30:06;6.57;;;5.97;;
13263;SDS011;6700;51.988;7.646;2022-08-19T12:32:35;7.25;;;6.55;;
13263;SDS011;6700;51.988;7.646;2022-08-19T12:35:02;6.93;;;6.32;;
13263;SDS011;6700;51.988;7.646;2022-08-19T12:37:29;6.85;;;6.25;;
13263;SDS011;6700;51.988;7.646;2022-08-19T12:39:57;7.25;;;5.70;;
13263;SDS011;6700;51.988;7.646;2022-08-19T12:42:25;6.35;;;5.85;;
13263;SDS011;6700;51.988;7.646;2022-08-19T12:44:52;6.10;;;5.60;;
13263;SDS011;6700;51.988;7.646;2022-08-19T12:47:19;7.15;;;6.55;;
13263;SDS011;6700;51.988;7.646;2022-08-19T12:49:46;7.13;;;6.53;;
13263;SDS011;6700;51.988;7.646;2022-08-19T12:52:21;6.80;;;6.20;;
13263;SDS011;6700;51.988;7.646;2022-08-19T12:54:49;6.25;;;5.75;;
13263;SDS011;6700;51.988;7.646;2022-08-19T12:57:20;7.18;;;6.43;;
13263;SDS011;6700;51.988;7.646;2022-08-19T13:00:09;5.78;;;5.28;;
13263;SDS011;6700;51.988;7.646;2022-08-19T13:02:40;5.88;;;5.32;;
13263;SDS011;6700;51.988;7.646;2022-08-19T13:05:11;5.78;;;5.28;;
13263;SDS011;6700;51.988;7.646;2022-08-19T13:07:40;6.55;;;5.88;;
13263;SDS011;6700;51.988;7.646;2022-08-19T13:10:10;6.95;;;4.82;;
13263;SDS011;6700;51.988;7.646;2022-08-19T13:12:41;5.57;;;4.97;;
13263;SDS011;6700;51.988;7.646;2022-08-19T13:15:10;4.95;;;4.45;;
13263;SDS011;6700;51.988;7.646;2022-08-19T13:17:40;5.60;;;5.10;;
13263;SDS011;6700;51.988;7.646;2022-08-19T13:20:08;6.63;;;5.70;;
13263;SDS011;6700;51.988;7.646;2022-08-19T13:22:36;4.85;;;4.35;;
13263;SDS011;6700;51.988;7.646;2022-08-19T13:25:04;4.20;;;3.80;;
13263;SDS011;6700;51.988;7.646;2022-08-19T13:27:32;4.97;;;4.57;;
13263;SDS011;6700;51.988;7.646;2022-08-19T13:29:59;7.45;;;4.43;;
13263;SDS011;6700;51.988;7.646;2022-08-19T13:32:46;5.45;;;4.80;;
13263;SDS011;6700;51.988;7.646;2022-08-19T13:35:31;5.43;;;4.75;;
13263;SDS011;6700;51.988;7.646;2022-08-19T13:37:58;7.53;;;4.93;;
13263;SDS011;6700;51.988;7.646;2022-08-19T13:40:26;7.38;;;6.63;;
13263;SDS011;6700;51.988;7.646;2022-08-19T13:42:56;7.85;;;7.15;;
13263;SDS011;6700;51.988;7.646;2022-08-19T13:45:24;5.10;;;4.70;;
13263;SDS011;6700;51.988;7.646;2022-08-19T13:47:53;5.35;;;4.95;;
13263;SDS011;6700;51.988;7.646;2022-08-19T13:50:26;5.55;;;5.05;;
13263;SDS011;6700;51.988;7.646;2022-08-19T13:52:55;5.68;;;5.10;;
13263;SDS011;6700;51.988;7.646;2022-08-19T13:55:22;5.72;;;5.18;;
13263;SDS011;6700;51.988;7.646;2022-08-19T13:57:51;5.32;;;4.93;;
13263;SDS011;6700;51.988;7.646;2022-08-19T14:00:19;7.90;;;5.43;;
13263;SDS011;6700;51.988;7.646;2022-08-19T14:02:49;5.53;;;5.10;;
13263;SDS011;6700;51.988;7.646;2022-08-19T14:05:17;6.93;;;5.22;;
13263;SDS011;6700;51.988;7.646;2022-08-19T14:07:45;12.82;;;5.07;;
13263;SDS011;6700;51.988;7.646;2022-08-19T14:10:12;5.28;;;4.78;;
13263;SDS011;6700;51.988;7.646;2022-08-19T14:12:39;5.38;;;4.70;;
13263;SDS011;6700;51.988;7.646;2022-08-19T14:15:07;5.88;;;5.38;;
13263;SDS011;6700;51.988;7.646;2022-08-19T14:17:39;5.82;;;5.30;;
13263;SDS011;6700;51.988;7.646;2022-08-19T14:20:08;5.95;;;5.30;;
13263;SDS011;6700;51.988;7.646;2022-08-19T14:22:43;6.68;;;5.60;;
13263;SDS011;6700;51.988;7.646;2022-08-19T14:25:14;9.98;;;7.43;;
13263;SDS011;6700;51.988;7.646;2022-08-19T14:27:43;8.15;;;7.10;;
13263;SDS011;6700;51.988;7.646;2022-08-19T14:30:11;6.10;;;5.50;;
13263;SDS011;6700;51.988;7.646;2022-08-19T14:32:41;5.80;;;5.30;;
13263;SDS011;6700;51.988;7.646;2022-08-19T14:35:10;6.22;;;5.25;;
13263;SDS011;6700;51.988;7.646;2022-08-19T14:37:38;6.28;;;5.78;;
13263;SDS011;6700;51.988;7.646;2022-08-19T14:40:11;6.88;;;6.05;;
13263;SDS011;6700;51.988;7.646;2022-08-19T14:42:40;6.65;;;6.03;;
13263;SDS011;6700;51.988;7.646;2022-08-19T14:45:08;6.75;;;6.13;;
13263;SDS011;6700;51.988;7.646;2022-08-19T14:47:38;8.57;;;5.88;;
13263;SDS011;6700;51.988;7.646;2022-08-19T14:50:06;5.43;;;4.95;;
13263;SDS011;6700;51.988;7.646;2022-08-19T14:52:43;6.15;;;5.35;;
13263;SDS011;6700;51.988;7.646;2022-08-19T14:55:10;5.57;;;5.00;;
13263;SDS011;6700;51.988;7.646;2022-08-19T14:57:37;5.50;;;4.75;;
13263;SDS011;6700;51.988;7.646;2022-08-19T15:00:06;6.18;;;5.57;;
13263;SDS011;6700;51.988;7.646;2022-08-19T15:02:37;5.95;;;5.45;;
13263;SDS011;6700;51.988;7.646;2022-08-19T15:05:05;6.85;;;5.90;;
13263;SDS011;6700;51.988;7.646;2022-08-19T15:07:32;6.38;;;5.78;;
13263;SDS011;6700;51.988;7.646;2022-08-19T15:09:59;6.60;;;5.47;;
13263;SDS011;6700;51.988;7.646;2022-08-19T15:12:26;6.43;;;5.82;;
13263;SDS011;6700;51.988;7.646;2022-08-19T15:14:53;9.27;;;6.55;;
13263;SDS011;6700;51.988;7.646;2022-08-19T15:17:22;6.63;;;6.03;;
13263;SDS011;6700;51.988;7.646;2022-08-19T15:20:10;6.97;;;5.80;;
13263;SDS011;6700;51.988;7.646;2022-08-19T15:22:38;11.02;;;7.60;;